Time;durP1;ratioP1;P1;durP2;ratioP2;P2;SDS_P1;SDS_P2;PMS_P1;PMS_P2;Temp;Humidity;BMP_temperature;BMP_pressure;BME280_temperature;BME280_humidity;BME280_pressure;Samples;Min_cycle;Max_cycle;Signal;HPM_P1;HPM_P2
2022/07/15 00:00:34;;;;;;;1.17;0.70;;;;;;;23.64;45.67;98934.72;6160424;23;20158;-91
2022/07/15 00:03:06;;;;;;;2.10;1.13;;;;;;;23.56;46.29;98940.09;6160210;23;20189;-91
2022/07/15 00:05:31;;;;;;;1.00;0.60;;;;;;;23.58;45.73;98932.75;6186977;23;20196;-91
2022/07/15 00:08:00;;;;;;;1.60;0.60;;;;;;;23.61;45.29;98929.72;6161757;23;20229;-91
2022/07/15 00:10:27;;;;;;;1.73;0.70;;;;;;;23.62;45.29;98925.19;6160138;23;20173;-91
2022/07/15 00:12:55;;;;;;;1.50;0.90;;;;;;;23.57;45.22;98924.88;6186385;23;20646;-90
2022/07/15 00:15:24;;;;;;;0.60;0.50;;;;;;;23.43;45.96;98918.34;6186610;23;20147;-91
2022/07/15 00:17:50;;;;;;;1.20;0.70;;;;;;;23.38;46.38;98928.72;6160311;23;20585;-91
2022/07/15 00:20:17;;;;;;;0.90;0.50;;;;;;;23.39;45.87;98911.66;6186078;23;20150;-90
2022/07/15 00:22:44;;;;;;;1.97;0.80;;;;;;;23.36;45.40;98911.13;6186023;23;20150;-91
2022/07/15 00:25:11;;;;;;;4.83;1.10;;;;;;;23.33;45.53;98916.81;6160231;23;20161;-92
2022/07/15 00:27:53;;;;;;;1.53;0.70;;;;;;;23.27;46.07;98917.50;6160082;23;20224;-91
2022/07/15 00:30:19;;;;;;;1.00;0.57;;;;;;;23.20;46.04;98917.31;6186487;23;20143;-90
2022/07/15 00:32:46;;;;;;;1.43;0.60;;;;;;;23.11;46.40;98919.13;6160108;23;20174;-91
2022/07/15 00:35:12;;;;;;;2.13;0.90;;;;;;;23.12;46.64;98914.63;6161052;23;20155;-90
2022/07/15 00:37:37;;;;;;;1.30;0.60;;;;;;;23.14;46.68;98915.28;6185432;23;20558;-90
2022/07/15 00:40:03;;;;;;;1.43;0.40;;;;;;;23.16;46.61;98914.13;6186312;23;20161;-90
2022/07/15 00:42:46;;;;;;;1.60;0.83;;;;;;;23.16;46.82;98910.63;6186216;23;20500;-92
2022/07/15 00:45:17;;;;;;;1.30;0.70;;;;;;;23.11;46.64;98907.63;6186037;23;20139;-91
2022/07/15 00:47:53;;;;;;;1.37;0.80;;;;;;;22.97;46.97;98903.75;6186214;23;20598;-89
2022/07/15 00:50:20;;;;;;;1.47;0.90;;;;;;;22.90;46.82;98897.38;6185981;23;20138;-91
2022/07/15 00:52:53;;;;;;;5.00;0.80;;;;;;;22.87;47.20;98894.19;6185780;23;21278;-91
2022/07/15 00:55:18;;;;;;;1.43;0.67;;;;;;;22.79;47.19;98892.34;6186224;23;20543;-90
2022/07/15 00:57:45;;;;;;;0.67;0.60;;;;;;;22.72;47.67;98895.84;6159675;23;20182;-91
2022/07/15 01:00:13;;;;;;;1.07;0.70;;;;;;;22.67;47.76;98892.81;6185793;23;20160;-91
2022/07/15 01:02:42;;;;;;;1.77;0.73;;;;;;;22.57;48.59;98891.06;6159815;23;20480;-90
2022/07/15 01:05:10;;;;;;;0.80;0.50;;;;;;;22.57;47.98;98890.22;6159734;23;20237;-90
2022/07/15 01:07:38;;;;;;;2.17;1.10;;;;;;;22.67;47.90;98892.81;6186052;23;20592;-90
2022/07/15 01:10:04;;;;;;;2.87;0.80;;;;;;;22.72;47.62;98885.16;6159752;23;20154;-91
2022/07/15 01:12:30;;;;;;;3.23;0.90;;;;;;;22.66;47.60;98881.28;6186287;23;20244;-90
2022/07/15 01:14:56;;;;;;;1.53;0.70;;;;;;;22.44;48.60;98874.66;6185836;23;20209;-90
2022/07/15 01:17:21;;;;;;;1.73;0.80;;;;;;;22.39;48.72;98874.31;6159584;23;20165;-91
2022/07/15 01:19:47;;;;;;;1.80;0.80;;;;;;;22.33;49.21;98869.63;6159698;23;20483;-91
2022/07/15 01:22:12;;;;;;;2.50;0.70;;;;;;;22.23;49.58;98874.25;6185974;23;20176;-92
2022/07/15 01:24:38;;;;;;;2.50;1.00;;;;;;;22.18;49.37;98862.38;6159885;23;20154;-91
2022/07/15 01:27:03;;;;;;;1.23;0.70;;;;;;;22.04;50.16;98867.31;6185776;23;20483;-91
2022/07/15 01:29:29;;;;;;;1.30;0.70;;;;;;;21.95;50.84;98870.13;6159969;23;20465;-91
2022/07/15 01:31:54;;;;;;;1.57;0.70;;;;;;;21.97;50.75;98874.28;6159788;23;20316;-91
2022/07/15 01:34:20;;;;;;;4.23;0.70;;;;;;;22.01;50.38;98872.97;6159798;23;20571;-92
2022/07/15 01:36:46;;;;;;;2.17;1.00;;;;;;;22.12;49.82;98868.38;6185826;23;20235;-93
2022/07/15 01:39:12;;;;;;;2.60;1.00;;;;;;;21.98;50.18;98864.47;6159821;23;20166;-92
2022/07/15 01:41:37;;;;;;;2.37;0.90;;;;;;;21.90;50.96;98869.75;6185923;23;20156;-92
2022/07/15 01:44:04;;;;;;;1.77;0.90;;;;;;;21.84;51.04;98867.69;6186089;23;20150;-91
2022/07/15 01:46:29;;;;;;;1.70;0.77;;;;;;;21.78;50.99;98869.16;6185950;23;20150;-91
2022/07/15 01:51:39;;;;;;;0.93;0.70;;;;;;;21.67;51.40;98873.91;6187579;23;20265;-91
2022/07/15 01:54:05;;;;;;;1.10;0.70;;;;;;;21.68;51.63;98860.41;6187601;23;20527;-90
2022/07/15 01:56:30;;;;;;;1.60;0.90;;;;;;;21.69;51.27;98864.75;6161715;23;20249;-91
2022/07/15 01:58:56;;;;;;;1.07;0.73;;;;;;;21.65;51.41;98868.72;6187563;23;20150;-90
2022/07/15 02:01:21;;;;;;;1.20;0.60;;;;;;;21.48;52.24;98866.97;6161600;23;20577;-90
2022/07/15 02:03:47;;;;;;;4.33;0.93;;;;;;;21.44;52.46;98871.75;6187575;23;20452;-91
2022/07/15 02:06:13;;;;;;;2.60;1.20;;;;;;;21.45;52.04;98875.25;6187782;23;20155;-90
2022/07/15 02:08:39;;;;;;;1.13;0.80;;;;;;;21.47;51.24;98877.75;6161549;23;20233;-92
2022/07/15 02:11:06;;;;;;;1.83;0.73;;;;;;;21.51;51.10;98871.97;6187639;23;20561;-91
2022/07/15 02:13:31;;;;;;;2.57;0.77;;;;;;;21.45;51.69;98875.25;6187300;23;20186;-91
2022/07/15 02:15:57;;;;;;;1.90;0.67;;;;;;;21.39;52.06;98879.38;6161867;23;20554;-91
2022/07/15 02:18:22;;;;;;;1.20;0.67;;;;;;;21.36;51.73;98885.03;6187330;23;20147;-91
2022/07/15 02:20:48;;;;;;;1.30;0.63;;;;;;;21.25;52.03;98887.09;6161469;23;20150;-91
2022/07/15 02:23:13;;;;;;;3.23;0.70;;;;;;;21.30;51.80;98888.28;6187218;23;20150;-90
2022/07/15 02:25:39;;;;;;;1.63;0.80;;;;;;;21.36;51.87;98887.69;6161364;23;20536;-91
2022/07/15 02:28:05;;;;;;;1.20;0.70;;;;;;;21.47;51.42;98885.75;6187197;23;20146;-91
2022/07/15 02:30:37;;;;;;;1.00;0.60;;;;;;;21.26;52.19;98889.59;6187148;23;20150;-91
2022/07/15 02:33:03;;;;;;;1.10;0.60;;;;;;;21.26;51.91;98884.28;6187511;23;20578;-90
2022/07/15 02:35:30;;;;;;;1.17;0.70;;;;;;;21.22;51.78;98887.41;6187119;23;20215;-90
2022/07/15 02:37:56;;;;;;;3.27;0.90;;;;;;;21.23;52.18;98889.91;6187455;23;20185;-92
2022/07/15 02:40:22;;;;;;;1.43;0.87;;;;;;;21.27;51.85;98893.97;6161319;23;20150;-91
2022/07/15 02:42:50;;;;;;;1.40;0.70;;;;;;;21.28;51.61;98892.94;6187388;23;20154;-92
2022/07/15 02:45:16;;;;;;;1.17;0.80;;;;;;;21.08;52.82;98891.44;6161237;23;20221;-91
2022/07/15 02:47:42;;;;;;;4.47;0.70;;;;;;;20.99;52.94;98897.66;6187349;23;20221;-90
2022/07/15 02:50:07;;;;;;;1.67;0.60;;;;;;;21.03;52.70;98892.84;6161086;23;20558;-91
2022/07/15 02:52:33;;;;;;;3.93;1.00;;;;;;;21.06;52.71;98898.75;6160766;23;20186;-90
2022/07/15 02:54:58;;;;;;;3.73;0.83;;;;;;;21.26;52.49;98894.94;6161096;23;20151;-92
2022/07/15 02:57:24;;;;;;;2.90;0.90;;;;;;;21.28;52.25;98892.94;6161101;23;20558;-91
2022/07/15 02:59:49;;;;;;;1.53;0.90;;;;;;;21.14;53.45;98890.84;6160434;23;20279;-91
2022/07/15 03:02:15;;;;;;;1.50;0.77;;;;;;;20.99;54.10;98902.97;6161028;23;20561;-91
2022/07/15 03:04:41;;;;;;;1.83;0.80;;;;;;;20.95;53.91;98895.44;6160881;23;20154;-90
2022/07/15 03:07:06;;;;;;;1.77;0.83;;;;;;;20.91;54.48;98894.91;6160780;23;20154;-91
2022/07/15 03:09:32;;;;;;;2.47;0.97;;;;;;;20.77;55.06;98893.63;6161004;23;20181;-90
2022/07/15 03:11:57;;;;;;;3.87;0.87;;;;;;;20.83;54.13;98900.16;6187280;23;20174;-91
2022/07/15 03:14:22;;;;;;;1.20;0.80;;;;;;;20.88;53.78;98897.03;6186690;23;20155;-90
2022/07/15 03:16:48;;;;;;;1.90;0.80;;;;;;;20.94;53.53;98893.78;6160772;23;20159;-91
2022/07/15 03:19:13;;;;;;;1.70;0.87;;;;;;;20.82;53.96;98894.00;6187083;23;20516;-91
2022/07/15 03:21:39;;;;;;;1.43;0.83;;;;;;;20.80;53.75;98895.13;6186987;23;20146;-91
2022/07/15 03:24:07;;;;;;;1.67;0.80;;;;;;;20.86;53.44;98893.69;6186852;23;20161;-91
2022/07/15 03:26:33;;;;;;;4.73;1.00;;;;;;;20.95;53.35;98896.28;6186461;23;20150;-90
2022/07/15 03:29:00;;;;;;;1.13;0.73;;;;;;;21.00;53.34;98894.00;6186576;23;20193;-91
2022/07/15 03:31:26;;;;;;;1.87;0.83;;;;;;;20.91;53.57;98900.22;6160654;23;20154;-91
2022/07/15 03:33:52;;;;;;;1.23;0.63;;;;;;;20.89;53.92;98896.88;6186621;23;20573;-91
2022/07/15 03:36:17;;;;;;;4.27;0.90;;;;;;;20.88;53.63;98905.88;6187051;23;20150;-90
2022/07/15 03:38:43;;;;;;;1.90;1.00;;;;;;;20.89;54.24;98901.38;6187258;23;20154;-90
2022/07/15 03:41:09;;;;;;;3.97;1.37;;;;;;;20.81;54.48;98894.97;6160609;23;20155;-91
2022/07/15 03:43:34;;;;;;;2.00;1.43;;;;;;;20.87;54.53;98908.69;6186554;23;20213;-91
2022/07/15 03:46:00;;;;;;;1.57;0.80;;;;;;;20.81;54.52;98907.44;6186497;23;20150;-91
2022/07/15 03:48:25;;;;;;;1.33;0.63;;;;;;;20.80;54.92;98898.66;6187028;23;20150;-91
2022/07/15 03:50:50;;;;;;;1.70;0.90;;;;;;;20.89;54.51;98902.22;6160333;23;20232;-92
2022/07/15 03:53:16;;;;;;;1.83;0.77;;;;;;;20.89;54.55;98899.53;6186154;23;20198;-90
2022/07/15 03:55:41;;;;;;;1.53;0.83;;;;;;;20.92;54.67;98901.91;6186834;23;20150;-90
2022/07/15 03:58:07;;;;;;;1.10;0.67;;;;;;;20.95;55.29;98900.78;6186310;23;20158;-90
2022/07/15 04:00:32;;;;;;;2.83;1.20;;;;;;;21.04;55.10;98902.53;6160508;23;20241;-91
2022/07/15 04:02:58;;;;;;;1.33;0.73;;;;;;;21.06;55.40;98901.44;6186402;23;20480;-90
2022/07/15 04:05:23;;;;;;;2.60;1.07;;;;;;;21.10;55.04;98900.13;6186375;23;20306;-91
2022/07/15 04:07:49;;;;;;;2.30;1.00;;;;;;;21.08;55.04;98899.44;6186391;23;20588;-91
2022/07/15 04:10:15;;;;;;;3.20;1.00;;;;;;;21.11;54.83;98909.81;6186596;23;20162;-90
2022/07/15 04:12:41;;;;;;;2.10;0.90;;;;;;;21.12;55.11;98905.31;6160324;23;20193;-91
2022/07/15 04:15:07;;;;;;;1.30;0.80;;;;;;;21.22;55.18;98909.59;6160216;23;20154;-90
2022/07/15 04:17:34;;;;;;;3.00;1.13;;;;;;;21.27;55.48;98909.13;6160205;23;20574;-92
2022/07/15 04:19:59;;;;;;;1.50;0.83;;;;;;;21.33;55.69;98903.97;6160200;23;20150;-91
2022/07/15 04:22:25;;;;;;;1.57;0.90;;;;;;;21.40;56.17;98902.41;6160189;23;20161;-91
2022/07/15 04:24:50;;;;;;;1.90;0.97;;;;;;;21.53;56.20;98901.16;6160128;23;20154;-90
2022/07/15 04:27:16;;;;;;;2.17;1.03;;;;;;;21.57;56.33;98903.34;6161188;23;20159;-90
2022/07/15 04:29:41;;;;;;;1.97;1.00;;;;;;;21.72;55.77;98900.97;6160223;23;20462;-91
2022/07/15 04:32:07;;;;;;;8.83;1.40;;;;;;;21.86;55.65;98908.41;6186106;23;20611;-89
2022/07/15 04:34:32;;;;;;;5.43;1.10;;;;;;;21.96;54.89;98904.63;6186397;23;20150;-90
2022/07/15 04:36:58;;;;;;;1.93;1.07;;;;;;;22.12;55.13;98900.41;6186012;23;20554;-90
2022/07/15 04:39:23;;;;;;;1.53;0.80;;;;;;;22.16;54.98;98893.75;6185916;23;20150;-90
2022/07/15 04:41:51;;;;;;;1.57;0.60;;;;;;;22.30;54.94;98895.81;6185827;23;20139;-91
2022/07/15 04:44:17;;;;;;;1.80;0.90;;;;;;;22.46;54.45;98891.38;6186141;23;20566;-90
2022/07/15 04:46:43;;;;;;;3.53;1.10;;;;;;;22.68;52.83;98895.31;6159890;23;20154;-90
2022/07/15 04:51:52;;;;;;;2.20;0.70;;;;;;;22.91;51.63;98888.34;6186181;23;20566;-89
2022/07/15 04:54:18;;;;;;;1.10;0.60;;;;;;;23.06;50.86;98883.22;6159850;23;20605;-91
2022/07/15 04:56:43;;;;;;;1.40;0.87;;;;;;;23.21;50.63;98889.56;6186391;23;20150;-89
2022/07/15 04:59:09;;;;;;;2.97;0.80;;;;;;;23.37;49.96;98889.59;6159895;23;20166;-91
2022/07/15 05:01:34;;;;;;;2.10;0.97;;;;;;;23.54;48.89;98885.91;6160196;23;20158;-91
2022/07/15 05:04:00;;;;;;;0.97;0.63;;;;;;;23.67;47.46;98890.75;6159783;23;20200;-90
2022/07/15 05:06:25;;;;;;;3.00;1.00;;;;;;;23.78;48.26;98885.03;6185741;23;20153;-90
2022/07/15 05:08:51;;;;;;;1.23;0.73;;;;;;;23.89;47.77;98881.19;6159688;23;20585;-90
2022/07/15 05:11:16;;;;;;;1.83;1.00;;;;;;;24.04;47.26;98884.81;6160442;23;20237;-90
2022/07/15 05:13:42;;;;;;;1.90;0.93;;;;;;;24.10;46.99;98890.38;6159646;23;20585;-88
2022/07/15 05:16:08;;;;;;;2.00;1.00;;;;;;;24.21;46.66;98886.47;6185977;23;20633;-90
2022/07/15 05:18:33;;;;;;;1.63;0.90;;;;;;;24.36;46.20;98890.09;6185543;23;20580;-90
2022/07/15 05:20:59;;;;;;;2.00;1.03;;;;;;;24.52;45.83;98886.50;6185635;23;20161;-90
2022/07/15 05:23:24;;;;;;;1.57;0.80;;;;;;;24.55;45.34;98888.84;6186918;23;20147;-89
2022/07/15 05:25:50;;;;;;;4.20;0.90;;;;;;;24.66;45.68;98889.28;6187661;23;20150;-90
2022/07/15 05:28:16;;;;;;;1.33;0.80;;;;;;;24.89;45.13;98890.19;6187639;23;20253;-91
2022/07/15 05:30:42;;;;;;;1.43;0.80;;;;;;;24.99;43.77;98896.16;6161768;23;20594;-90
2022/07/15 05:33:09;;;;;;;1.57;0.80;;;;;;;25.14;44.28;98892.69;6161556;23;20641;-89
2022/07/15 05:35:35;;;;;;;5.13;1.10;;;;;;;25.31;43.80;98891.56;6187986;23;20154;-90
2022/07/15 05:38:00;;;;;;;2.97;0.90;;;;;;;25.40;44.38;98896.69;6161520;23;20168;-90
2022/07/15 05:40:26;;;;;;;2.37;1.10;;;;;;;25.65;43.89;98900.84;6160274;23;20256;-90
2022/07/15 05:42:53;;;;;;;1.40;0.73;;;;;;;25.86;43.31;98900.16;6161294;23;20170;-91
2022/07/15 05:45:19;;;;;;;4.00;0.87;;;;;;;25.98;43.06;98895.16;6187295;23;20181;-91
2022/07/15 05:47:51;;;;;;;6.20;2.10;;;;;;;26.13;42.59;98893.34;6161742;23;20154;-89
2022/07/15 05:50:19;;;;;;;2.63;1.13;;;;;;;26.26;41.95;98885.47;6161011;23;20240;-89
2022/07/15 05:52:45;;;;;;;2.97;1.47;;;;;;;26.32;42.42;98894.63;6160491;23;20193;-90
2022/07/15 05:55:11;;;;;;;1.73;0.83;;;;;;;26.35;42.50;98895.13;6187067;23;20469;-91
2022/07/15 05:57:36;;;;;;;1.27;0.77;;;;;;;26.54;42.70;98896.41;6187108;23;20151;-92
2022/07/15 06:00:04;;;;;;;2.93;0.73;;;;;;;26.72;41.56;98894.13;6161403;23;20600;-90
2022/07/15 06:02:30;;;;;;;3.97;1.10;;;;;;;26.89;41.17;98890.22;6161576;23;20147;-90
2022/07/15 06:04:56;;;;;;;1.40;0.80;;;;;;;26.99;41.58;98890.72;6161054;23;20150;-91
2022/07/15 06:07:22;;;;;;;3.63;1.07;;;;;;;27.10;41.48;98892.94;6161370;23;20185;-90
2022/07/15 06:09:50;;;;;;;2.17;0.90;;;;;;;27.24;40.82;98893.91;6187060;23;20558;-92
2022/07/15 06:12:16;;;;;;;1.20;0.80;;;;;;;27.44;41.47;98898.47;6187181;23;20178;-91
2022/07/15 06:14:42;;;;;;;2.17;1.10;;;;;;;27.42;41.12;98888.91;6187231;23;20147;-90
2022/07/15 06:17:07;;;;;;;1.25;0.80;;;;;;;27.59;41.31;98892.19;6187034;23;20157;-91
2022/07/15 06:19:33;;;;;;;1.25;0.70;;;;;;;27.76;40.53;98891.69;6186859;23;20165;-90
2022/07/15 06:22:01;;;;;;;1.02;0.73;;;;;;;27.90;40.28;98890.78;6187256;23;20157;-91
2022/07/15 06:24:27;;;;;;;3.55;0.98;;;;;;;28.10;40.77;98879.31;6187158;23;20158;-91
2022/07/15 06:26:53;;;;;;;3.47;1.10;;;;;;;28.07;40.02;98888.63;6160806;23;20217;-91
2022/07/15 06:29:19;;;;;;;1.60;0.90;;;;;;;28.32;40.34;98878.19;6186637;23;20154;-91
2022/07/15 06:31:45;;;;;;;2.25;0.70;;;;;;;28.49;39.78;98880.34;6187487;23;20636;-91
2022/07/15 06:34:10;;;;;;;1.83;0.82;;;;;;;28.83;39.38;98873.22;6186331;23;20147;-91
2022/07/15 06:36:36;;;;;;;1.48;0.77;;;;;;;29.05;38.77;98877.44;6186892;23;20628;-90
2022/07/15 06:39:05;;;;;;;1.55;1.00;;;;;;;29.46;38.53;98872.75;6160799;23;20169;-90
2022/07/15 06:41:33;;;;;;;1.40;0.70;;;;;;;29.68;36.89;98865.28;6160955;23;20160;-91
2022/07/15 06:44:01;;;;;;;2.72;0.80;;;;;;;29.80;36.46;98871.72;6186889;23;20157;-90
2022/07/15 06:46:27;;;;;;;1.45;0.90;;;;;;;29.99;36.30;98872.75;6160994;23;20178;-92
2022/07/15 06:48:53;;;;;;;1.13;0.65;;;;;;;30.18;35.45;98861.06;6160683;23;20220;-91
2022/07/15 06:51:18;;;;;;;1.33;0.80;;;;;;;30.45;35.12;98862.69;6186726;23;20163;-92
2022/07/15 06:53:44;;;;;;;1.75;0.73;;;;;;;30.59;34.08;98868.84;6186130;23;20644;-89
2022/07/15 06:56:09;;;;;;;2.72;0.60;;;;;;;30.71;34.39;98862.56;6160640;23;20566;-89
2022/07/15 06:58:35;;;;;;;4.75;1.73;;;;;;;30.92;34.73;98866.84;6187186;23;20573;-91
2022/07/15 07:01:01;;;;;;;1.00;0.65;;;;;;;31.14;34.43;98867.31;6186916;23;20581;-92
2022/07/15 07:03:27;;;;;;;2.58;0.70;;;;;;;31.35;34.39;98870.50;6186670;23;20147;-90
2022/07/15 07:05:57;;;;;;;1.50;0.70;;;;;;;31.21;33.73;98868.13;6186952;23;20484;-91
2022/07/15 07:08:22;;;;;;;4.97;0.98;;;;;;;31.25;33.59;98866.63;6160901;23;20157;-90
2022/07/15 07:10:48;;;;;;;2.30;0.90;;;;;;;31.38;34.14;98858.41;6186768;23;20483;-91
2022/07/15 07:13:13;;;;;;;1.67;0.77;;;;;;;31.74;33.24;98866.66;6160736;23;20265;-91
2022/07/15 07:15:39;;;;;;;2.15;0.60;;;;;;;31.97;33.43;98861.44;6187196;23;20143;-90
2022/07/15 07:18:04;;;;;;;2.00;0.80;;;;;;;32.23;32.17;98857.66;6160677;23;20158;-93
2022/07/15 07:20:30;;;;;;;3.45;1.35;;;;;;;32.25;32.53;98860.97;6186688;23;20151;-92
2022/07/15 07:22:57;;;;;;;0.98;0.77;;;;;;;32.40;30.48;98857.88;6186601;23;20166;-90
2022/07/15 07:25:23;;;;;;;1.65;0.95;;;;;;;32.57;31.23;98854.38;6187655;23;20146;-90
2022/07/15 07:27:49;;;;;;;1.75;0.93;;;;;;;32.66;32.46;98860.28;6186755;23;20147;-90
2022/07/15 07:30:14;;;;;;;1.85;0.70;;;;;;;32.90;30.66;98853.91;6186616;23;20485;-90
2022/07/15 07:32:42;;;;;;;1.98;0.75;;;;;;;32.97;31.05;98857.34;6161749;23;20193;-93
2022/07/15 07:35:08;;;;;;;1.27;0.60;;;;;;;33.06;30.89;98853.28;6160715;23;20216;-90
2022/07/15 07:37:35;;;;;;;2.38;0.98;;;;;;;33.44;30.80;98854.81;6187283;23;20178;-90
2022/07/15 07:40:03;;;;;;;1.38;0.77;;;;;;;33.64;30.37;98852.59;6160518;23;20223;-92
2022/07/15 07:42:29;;;;;;;1.00;0.68;;;;;;;33.81;30.54;98862.53;6160471;23;20585;-91
2022/07/15 07:44:59;;;;;;;3.33;0.80;;;;;;;33.79;29.36;98858.41;6160409;23;20162;-93
2022/07/15 07:47:25;;;;;;;1.48;0.75;;;;;;;33.87;29.41;98852.59;6160967;23;20154;-93
2022/07/15 07:49:50;;;;;;;1.98;0.77;;;;;;;34.23;29.11;98855.06;6186846;23;20165;-91
2022/07/15 07:52:16;;;;;;;1.77;1.17;;;;;;;34.41;29.19;98852.19;6186453;23;20174;-93
2022/07/15 07:54:51;;;;;;;1.05;0.65;;;;;;;34.74;28.69;98851.53;6161260;23;20166;-92
2022/07/15 07:57:17;;;;;;;1.15;0.77;;;;;;;34.82;28.16;98847.59;6161878;23;20157;-91
2022/07/15 07:59:49;;;;;;;2.10;0.68;;;;;;;34.98;27.11;98852.28;6186549;23;20162;-91
2022/07/15 08:02:16;;;;;;;1.52;0.65;;;;;;;35.31;27.03;98849.63;6187658;23;20158;-91
2022/07/15 08:04:41;;;;;;;2.65;0.80;;;;;;;35.52;26.48;98850.78;6160502;23;20229;-91
2022/07/15 08:07:59;;;;;;;0.80;0.57;;;;;;;35.28;25.38;98841.09;6160672;23;20192;-92
2022/07/15 08:10:30;;;;;;;1.25;0.68;;;;;;;35.17;26.75;98848.28;6160901;23;20221;-92
2022/07/15 08:12:56;;;;;;;0.65;0.45;;;;;;;35.23;25.77;98841.84;6187153;23;20167;-91
2022/07/15 08:15:31;;;;;;;1.23;0.73;;;;;;;35.36;26.14;98838.81;6186588;23;20161;-92
2022/07/15 08:18:00;;;;;;;0.80;0.50;;;;;;;35.37;25.92;98840.47;6160176;23;20150;-92
2022/07/15 08:20:36;;;;;;;4.22;0.70;;;;;;;35.39;25.53;98841.03;6186206;23;20640;-93
2022/07/15 08:23:08;;;;;;;4.05;1.02;;;;;;;35.58;25.99;98842.50;6186274;23;20130;-93
2022/07/15 08:25:52;;;;;;;0.95;0.45;;;;;;;35.55;25.95;98831.25;6160992;23;20514;-93
2022/07/15 08:28:21;;;;;;;1.08;0.68;;;;;;;35.71;26.69;98838.59;6155021;23;20159;-92
2022/07/15 08:30:47;;;;;;;1.80;0.82;;;;;;;35.84;25.35;98826.50;6157182;23;20158;-92
2022/07/15 08:33:19;;;;;;;1.58;0.60;;;;;;;35.76;28.04;98833.22;6160391;23;20193;-94
2022/07/15 08:35:44;;;;;;;0.75;0.40;;;;;;;35.80;25.61;98830.81;6186733;23;20134;-92
2022/07/15 08:38:10;;;;;;;2.80;1.40;;;;;;;35.92;25.10;98828.81;6186067;23;20150;-91
2022/07/15 08:40:40;;;;;;;0.98;0.60;;;;;;;36.03;25.79;98833.38;6160405;23;20177;-91
2022/07/15 08:43:08;;;;;;;1.80;0.93;;;;;;;36.28;23.97;98817.31;6159499;23;20596;-91
2022/07/15 08:45:37;;;;;;;1.60;0.68;;;;;;;36.40;25.95;98823.47;6160143;23;20154;-92
2022/07/15 08:48:04;;;;;;;4.78;1.02;;;;;;;36.72;24.24;98816.22;6186197;23;20157;-91
2022/07/15 08:50:32;;;;;;;1.45;0.70;;;;;;;36.92;23.98;98821.88;6184556;23;20582;-90
2022/07/15 08:53:01;;;;;;;1.17;0.52;;;;;;;36.94;23.26;98813.44;6159452;23;20263;-92
2022/07/15 08:55:32;;;;;;;1.88;0.75;;;;;;;37.11;24.90;98819.66;6185697;23;20537;-90
2022/07/15 08:57:57;;;;;;;0.90;0.50;;;;;;;37.24;23.04;98810.22;6185201;23;20241;-90
2022/07/15 09:00:28;;;;;;;2.78;0.77;;;;;;;37.15;22.82;98809.03;6159634;23;20244;-93
2022/07/15 09:03:05;;;;;;;0.90;0.45;;;;;;;37.22;23.37;98813.19;6160288;23;20134;-92
2022/07/15 09:05:36;;;;;;;0.55;0.30;;;;;;;37.15;23.50;98804.41;6185886;23;20154;-92
2022/07/15 09:08:18;;;;;;;1.05;0.50;;;;;;;37.03;23.52;98805.66;6160031;23;20476;-93
2022/07/15 09:10:50;;;;;;;1.63;0.60;;;;;;;37.34;23.03;98800.19;6160554;23;20238;-91
2022/07/15 09:13:24;;;;;;;1.00;0.43;;;;;;;37.69;24.00;98801.53;6185450;23;20186;-91
2022/07/15 09:15:50;;;;;;;1.55;0.55;;;;;;;37.84;22.06;98802.47;6159947;23;20254;-89
2022/07/15 09:18:18;;;;;;;2.97;0.60;;;;;;;37.91;23.41;98805.00;6185624;23;20146;-89
2022/07/15 09:20:45;;;;;;;1.23;0.68;;;;;;;37.92;22.49;98799.25;6160010;23;20194;-90
2022/07/15 09:23:23;;;;;;;1.67;0.77;;;;;;;37.81;23.27;98797.53;6159442;23;20146;-90
2022/07/15 09:25:51;;;;;;;0.95;0.40;;;;;;;37.55;24.49;98798.47;6159785;23;20150;-93
2022/07/15 09:28:17;;;;;;;0.80;0.40;;;;;;;37.58;23.59;98797.91;6159421;23;20158;-91
2022/07/15 09:33:40;;;;;;;1.58;0.88;;;;;;;37.86;22.25;98789.38;6185651;23;20181;-91
2022/07/15 09:36:20;;;;;;;2.22;1.00;;;;;;;37.81;23.24;98791.25;6185358;23;20166;-91
2022/07/15 09:38:50;;;;;;;5.03;1.25;;;;;;;37.83;22.99;98787.16;6159547;23;20150;-89
2022/07/15 09:41:26;;;;;;;5.22;2.78;;;;;;;38.03;23.06;98787.28;6185352;23;20237;-90
2022/07/15 09:43:55;;;;;;;5.03;2.58;;;;;;;38.12;21.70;98784.88;6185920;23;20448;-91
2022/07/15 09:46:23;;;;;;;2.13;1.02;;;;;;;38.12;22.79;98782.97;6185512;23;20147;-91
2022/07/15 09:48:52;;;;;;;1.70;0.80;;;;;;;37.96;23.77;98777.66;6160919;23;20154;-92
2022/07/15 09:51:21;;;;;;;1.55;0.70;;;;;;;38.01;22.26;98774.94;6159579;23;20164;-91
2022/07/15 09:53:50;;;;;;;0.68;0.50;;;;;;;38.36;22.64;98766.94;6185190;23;20647;-93
2022/07/15 09:56:22;;;;;;;2.83;0.93;;;;;;;38.27;22.29;98773.97;6185565;23;20150;-92
2022/07/15 09:58:53;;;;;;;0.95;0.70;;;;;;;38.26;23.04;98768.78;6185613;23;20614;-93
2022/07/15 10:01:19;;;;;;;3.38;0.90;;;;;;;37.73;23.38;98769.84;6159770;23;20165;-91
2022/07/15 10:04:51;;;;;;;1.52;0.68;;;;;;;37.33;22.60;98767.63;6159767;23;20150;-92
2022/07/15 10:07:18;;;;;;;1.23;0.52;;;;;;;37.48;22.71;98754.91;6038295;23;20238;-91
2022/07/15 10:10:26;;;;;;;;;;;;;;;;;;;;;
2022/07/15 10:13:29;;;;;;;3.88;0.75;;;;;;;38.34;23.32;98754.59;6185925;23;20259;-92
2022/07/15 10:16:19;;;;;;;1.45;0.40;;;;;;;38.17;22.81;98753.94;6161538;23;20181;-93
2022/07/15 10:19:17;;;;;;;1.55;0.60;;;;;;;38.08;22.47;98748.97;6187789;23;20535;-93
2022/07/15 10:21:58;;;;;;;0.85;0.50;;;;;;;38.39;22.43;98732.69;6130704;23;20189;-90
2022/07/15 10:24:49;;;;;;;0.77;0.45;;;;;;;38.09;22.87;98747.06;6187200;23;20138;-91
2022/07/15 10:30:24;;;;;;;1.17;0.50;;;;;;;38.28;21.70;98739.19;6162376;23;20169;-90
2022/07/15 10:33:07;;;;;;;2.63;0.60;;;;;;;38.59;20.92;98739.03;6161167;23;20186;-90
2022/07/15 10:35:48;;;;;;;4.93;0.65;;;;;;;38.87;20.97;98729.50;6187711;23;20146;-91
2022/07/15 10:38:20;;;;;;;1.02;0.50;;;;;;;39.08;20.57;98731.16;6161264;23;20143;-90
2022/07/15 10:41:14;;;;;;;1.20;0.43;;;;;;;39.17;20.14;98734.19;6187020;23;20154;-91
2022/07/15 10:43:41;;;;;;;1.30;0.40;;;;;;;38.59;20.27;98727.25;6187745;23;20158;-92
2022/07/15 10:46:28;;;;;;;1.25;0.40;;;;;;;38.72;20.74;98723.97;6161188;23;20267;-91
2022/07/15 10:48:56;;;;;;;1.00;0.40;;;;;;;38.69;20.43;98721.78;6187714;23;20154;-94
2022/07/15 10:51:42;;;;;;;0.93;0.60;;;;;;;38.99;20.43;98715.53;6162210;23;20155;-93
2022/07/15 10:54:17;;;;;;;1.08;0.40;;;;;;;39.39;20.59;98717.47;6186911;23;20170;-93
2022/07/15 10:57:16;;;;;;;2.55;0.50;;;;;;;39.17;19.27;98718.53;6161133;23;20154;-92
2022/07/15 11:03:27;;;;;;;1.67;0.40;;;;;;;38.83;20.39;98722.09;6187435;23;20593;-90
2022/07/15 11:06:17;;;;;;;1.95;0.98;;;;;;;38.79;19.99;98710.84;6187734;23;20193;-91
2022/07/15 11:08:43;;;;;;;0.65;0.50;;;;;;;38.92;19.78;98704.00;6162271;23;20558;-90
2022/07/15 11:11:15;;;;;;;1.25;0.50;;;;;;;39.03;19.97;98703.75;6161249;23;20164;-90
2022/07/15 11:13:42;;;;;;;0.60;0.30;;;;;;;39.09;20.03;98708.13;6187017;23;20186;-89
2022/07/15 11:16:26;;;;;;;1.67;0.65;;;;;;;39.20;20.73;98704.31;6160950;23;20226;-89
2022/07/15 11:18:57;;;;;;;0.63;0.30;;;;;;;39.52;19.24;98714.94;6161203;23;20143;-91
2022/07/15 11:21:24;;;;;;;1.35;0.35;;;;;;;39.84;18.81;98698.13;6160451;23;20146;-90
2022/07/15 11:23:51;;;;;;;1.10;0.55;;;;;;;39.66;18.29;98696.00;6186921;23;20153;-90
2022/07/15 11:26:18;;;;;;;0.57;0.30;;;;;;;40.02;19.38;98691.22;6186802;23;20150;-90
2022/07/15 11:28:51;;;;;;;2.17;0.73;;;;;;;40.15;19.91;98694.16;6161749;23;20200;-89
2022/07/15 11:31:17;;;;;;;1.38;0.52;;;;;;;40.03;19.83;98681.84;6187167;23;20147;-89
2022/07/15 11:33:42;;;;;;;2.85;0.57;;;;;;;40.20;19.23;98683.16;6160953;23;20182;-88
2022/07/15 11:36:23;;;;;;;0.90;0.47;;;;;;;40.12;19.67;98692.00;6186775;23;20448;-89
2022/07/15 11:39:19;;;;;;;0.90;0.40;;;;;;;39.90;19.75;98677.81;6187494;23;20154;-90
2022/07/15 11:44:47;;;;;;;0.43;0.30;;;;;;;39.24;20.44;98677.16;6187030;23;20204;-90
2022/07/15 11:47:13;;;;;;;1.65;0.35;;;;;;;39.35;20.75;98675.22;6096149;23;20156;-91
2022/07/15 11:50:06;;;;;;;0.70;0.43;;;;;;;39.29;20.23;98672.47;6096256;23;20153;-91
2022/07/15 11:52:53;;;;;;;;;;;;;;;;;;;;;
2022/07/15 11:55:58;;;;;;;1.58;0.60;;;;;;;39.05;20.01;98671.38;6067569;23;20265;-91
2022/07/15 11:58:36;;;;;;;1.52;0.80;;;;;;;39.21;19.85;98664.81;6043595;23;20202;-91
2022/07/15 12:01:07;;;;;;;1.15;0.50;;;;;;;39.50;20.65;98647.72;6067516;23;20156;-89
2022/07/15 12:03:35;;;;;;;2.10;1.00;;;;;;;39.78;19.84;98652.63;6067296;23;20157;-91